sensor_id;sensor_type;location;lat;lon;timestamp;temperature;humidity
4985;DHT22;2509;49.902;8.600;2023-09-19T00:02:52;18.00;99.90
4985;DHT22;2509;49.902;8.600;2023-09-19T00:05:54;18.00;99.90
4985;DHT22;2509;49.902;8.600;2023-09-19T00:08:56;18.00;99.90
4985;DHT22;2509;49.902;8.600;2023-09-19T00:12:00;18.00;99.90
4985;DHT22;2509;49.902;8.600;2023-09-19T00:15:03;18.00;99.90
4985;DHT22;2509;49.902;8.600;2023-09-19T00:18:07;18.00;99.90
4985;DHT22;2509;49.902;8.600;2023-09-19T00:21:09;18.00;99.90
4985;DHT22;2509;49.902;8.600;2023-09-19T00:24:11;18.00;99.90
4985;DHT22;2509;49.902;8.600;2023-09-19T00:27:15;18.00;99.90
4985;DHT22;2509;49.902;8.600;2023-09-19T00:30:17;18.00;99.90
4985;DHT22;2509;49.902;8.600;2023-09-19T00:33:22;18.00;99.90
4985;DHT22;2509;49.902;8.600;2023-09-19T00:36:25;18.00;99.90
4985;DHT22;2509;49.902;8.600;2023-09-19T00:39:26;18.10;99.90
4985;DHT22;2509;49.902;8.600;2023-09-19T00:42:33;18.10;99.90
4985;DHT22;2509;49.902;8.600;2023-09-19T00:45:37;18.10;99.90
4985;DHT22;2509;49.902;8.600;2023-09-19T00:48:41;18.10;99.90
4985;DHT22;2509;49.902;8.600;2023-09-19T00:51:44;18.10;99.90
4985;DHT22;2509;49.902;8.600;2023-09-19T00:54:47;18.10;99.90
4985;DHT22;2509;49.902;8.600;2023-09-19T00:57:50;18.20;99.90
4985;DHT22;2509;49.902;8.600;2023-09-19T01:00:53;18.20;99.90
4985;DHT22;2509;49.902;8.600;2023-09-19T01:03:56;18.20;99.90
4985;DHT22;2509;49.902;8.600;2023-09-19T01:06:58;18.20;99.90
4985;DHT22;2509;49.902;8.600;2023-09-19T01:10:00;18.20;99.90
4985;DHT22;2509;49.902;8.600;2023-09-19T01:13:08;18.10;99.90
4985;DHT22;2509;49.902;8.600;2023-09-19T01:16:17;18.10;99.90
4985;DHT22;2509;49.902;8.600;2023-09-19T01:22:56;18.10;99.90
4985;DHT22;2509;49.902;8.600;2023-09-19T01:26:07;18.10;99.90
4985;DHT22;2509;49.902;8.600;2023-09-19T01:29:26;18.10;99.90
4985;DHT22;2509;49.902;8.600;2023-09-19T01:32:37;18.10;99.90
4985;DHT22;2509;49.902;8.600;2023-09-19T01:35:41;18.10;99.90
4985;DHT22;2509;49.902;8.600;2023-09-19T01:38:43;18.20;99.90
4985;DHT22;2509;49.902;8.600;2023-09-19T01:41:56;18.20;99.90
4985;DHT22;2509;49.902;8.600;2023-09-19T01:45:06;18.20;99.90
4985;DHT22;2509;49.902;8.600;2023-09-19T01:48:20;18.20;99.90
4985;DHT22;2509;49.902;8.600;2023-09-19T01:51:33;18.20;99.90
4985;DHT22;2509;49.902;8.600;2023-09-19T01:54:41;18.20;99.90
4985;DHT22;2509;49.902;8.600;2023-09-19T01:57:49;18.30;99.90
4985;DHT22;2509;49.902;8.600;2023-09-19T02:00:55;18.20;99.90
4985;DHT22;2509;49.902;8.600;2023-09-19T02:03:59;18.20;99.90
4985;DHT22;2509;49.902;8.600;2023-09-19T02:07:01;18.20;99.90
4985;DHT22;2509;49.902;8.600;2023-09-19T02:10:07;18.20;99.90
4985;DHT22;2509;49.902;8.600;2023-09-19T02:13:10;18.20;99.90
4985;DHT22;2509;49.902;8.600;2023-09-19T02:16:13;18.10;99.90
4985;DHT22;2509;49.902;8.600;2023-09-19T02:19:21;18.10;99.90
4985;DHT22;2509;49.902;8.600;2023-09-19T02:22:23;18.10;99.90
4985;DHT22;2509;49.902;8.600;2023-09-19T02:25:25;18.10;99.90
4985;DHT22;2509;49.902;8.600;2023-09-19T02:28:28;18.10;99.90
4985;DHT22;2509;49.902;8.600;2023-09-19T02:31:32;18.00;99.90
4985;DHT22;2509;49.902;8.600;2023-09-19T02:34:35;18.00;99.90
4985;DHT22;2509;49.902;8.600;2023-09-19T02:37:39;17.90;99.90
4985;DHT22;2509;49.902;8.600;2023-09-19T02:40:41;17.90;99.90
4985;DHT22;2509;49.902;8.600;2023-09-19T02:43:43;17.80;99.90
4985;DHT22;2509;49.902;8.600;2023-09-19T02:46:46;17.80;99.90
4985;DHT22;2509;49.902;8.600;2023-09-19T02:49:49;17.80;99.90
4985;DHT22;2509;49.902;8.600;2023-09-19T02:52:51;17.70;99.90
4985;DHT22;2509;49.902;8.600;2023-09-19T02:55:53;17.70;99.90
4985;DHT22;2509;49.902;8.600;2023-09-19T02:58:55;17.70;99.90
4985;DHT22;2509;49.902;8.600;2023-09-19T03:01:58;17.60;99.90
4985;DHT22;2509;49.902;8.600;2023-09-19T03:05:02;17.60;99.90
4985;DHT22;2509;49.902;8.600;2023-09-19T03:08:04;17.60;99.90
4985;DHT22;2509;49.902;8.600;2023-09-19T03:11:06;17.50;99.90
4985;DHT22;2509;49.902;8.600;2023-09-19T03:14:12;17.50;99.90
4985;DHT22;2509;49.902;8.600;2023-09-19T03:17:15;17.50;99.90
4985;DHT22;2509;49.902;8.600;2023-09-19T03:20:18;17.50;99.90
4985;DHT22;2509;49.902;8.600;2023-09-19T03:23:21;17.50;99.90
4985;DHT22;2509;49.902;8.600;2023-09-19T03:26:23;17.50;99.90
4985;DHT22;2509;49.902;8.600;2023-09-19T03:29:27;17.50;99.90
4985;DHT22;2509;49.902;8.600;2023-09-19T03:32:28;17.50;99.90
4985;DHT22;2509;49.902;8.600;2023-09-19T03:35:32;17.40;99.90
4985;DHT22;2509;49.902;8.600;2023-09-19T03:38:34;17.40;99.90
4985;DHT22;2509;49.902;8.600;2023-09-19T03:41:36;17.50;99.90
4985;DHT22;2509;49.902;8.600;2023-09-19T03:44:37;17.40;99.90
4985;DHT22;2509;49.902;8.600;2023-09-19T03:47:39;17.40;99.90
4985;DHT22;2509;49.902;8.600;2023-09-19T03:50:42;17.40;99.90
4985;DHT22;2509;49.902;8.600;2023-09-19T03:53:44;17.40;99.90
4985;DHT22;2509;49.902;8.600;2023-09-19T03:56:47;17.40;99.90
4985;DHT22;2509;49.902;8.600;2023-09-19T03:59:48;17.30;99.90
4985;DHT22;2509;49.902;8.600;2023-09-19T04:02:53;17.30;99.90
4985;DHT22;2509;49.902;8.600;2023-09-19T04:05:58;17.30;99.90
4985;DHT22;2509;49.902;8.600;2023-09-19T04:09:00;17.30;99.90
4985;DHT22;2509;49.902;8.600;2023-09-19T04:12:02;17.30;99.90
4985;DHT22;2509;49.902;8.600;2023-09-19T04:15:04;17.30;99.90
4985;DHT22;2509;49.902;8.600;2023-09-19T04:18:06;17.20;99.90
4985;DHT22;2509;49.902;8.600;2023-09-19T04:21:09;17.20;99.90
4985;DHT22;2509;49.902;8.600;2023-09-19T04:24:11;17.20;99.90
4985;DHT22;2509;49.902;8.600;2023-09-19T04:27:13;17.20;99.90
4985;DHT22;2509;49.902;8.600;2023-09-19T04:30:16;17.30;99.90
4985;DHT22;2509;49.902;8.600;2023-09-19T04:33:18;17.30;99.90
4985;DHT22;2509;49.902;8.600;2023-09-19T04:36:21;17.30;99.90
4985;DHT22;2509;49.902;8.600;2023-09-19T04:39:23;17.30;99.90
4985;DHT22;2509;49.902;8.600;2023-09-19T04:42:26;17.30;99.90
4985;DHT22;2509;49.902;8.600;2023-09-19T04:45:28;17.30;99.90
4985;DHT22;2509;49.902;8.600;2023-09-19T04:48:30;17.20;99.90
4985;DHT22;2509;49.902;8.600;2023-09-19T04:51:33;17.10;99.90
4985;DHT22;2509;49.902;8.600;2023-09-19T04:54:36;17.10;99.90
4985;DHT22;2509;49.902;8.600;2023-09-19T04:57:39;17.10;99.90
4985;DHT22;2509;49.902;8.600;2023-09-19T05:00:40;17.10;99.90
4985;DHT22;2509;49.902;8.600;2023-09-19T05:03:42;17.10;99.90
4985;DHT22;2509;49.902;8.600;2023-09-19T05:06:46;17.10;99.90
4985;DHT22;2509;49.902;8.600;2023-09-19T05:09:48;17.10;99.90
4985;DHT22;2509;49.902;8.600;2023-09-19T05:12:53;17.20;99.90
4985;DHT22;2509;49.902;8.600;2023-09-19T05:15:55;17.20;99.90
4985;DHT22;2509;49.902;8.600;2023-09-19T05:18:56;17.20;99.90
4985;DHT22;2509;49.902;8.600;2023-09-19T05:22:00;17.20;99.90
4985;DHT22;2509;49.902;8.600;2023-09-19T05:25:01;17.30;99.90
4985;DHT22;2509;49.902;8.600;2023-09-19T05:28:05;17.30;99.90
4985;DHT22;2509;49.902;8.600;2023-09-19T05:31:07;17.20;99.90
4985;DHT22;2509;49.902;8.600;2023-09-19T05:34:09;17.20;99.90
4985;DHT22;2509;49.902;8.600;2023-09-19T05:37:13;17.20;99.90
4985;DHT22;2509;49.902;8.600;2023-09-19T05:40:16;17.20;99.90
4985;DHT22;2509;49.902;8.600;2023-09-19T05:43:18;17.20;99.90
4985;DHT22;2509;49.902;8.600;2023-09-19T05:46:20;17.20;99.90
4985;DHT22;2509;49.902;8.600;2023-09-19T05:49:22;17.20;99.90
4985;DHT22;2509;49.902;8.600;2023-09-19T05:52:26;17.20;99.90
4985;DHT22;2509;49.902;8.600;2023-09-19T05:55:28;17.20;99.90
4985;DHT22;2509;49.902;8.600;2023-09-19T05:58:30;17.20;99.90
4985;DHT22;2509;49.902;8.600;2023-09-19T06:01:32;17.20;99.90
4985;DHT22;2509;49.902;8.600;2023-09-19T06:04:34;17.20;99.90
4985;DHT22;2509;49.902;8.600;2023-09-19T06:07:37;17.30;99.90
4985;DHT22;2509;49.902;8.600;2023-09-19T06:10:39;17.30;99.90
4985;DHT22;2509;49.902;8.600;2023-09-19T06:13:41;17.30;99.90
4985;DHT22;2509;49.902;8.600;2023-09-19T06:16:42;17.40;99.90
4985;DHT22;2509;49.902;8.600;2023-09-19T06:19:44;17.40;99.90
4985;DHT22;2509;49.902;8.600;2023-09-19T06:22:49;17.40;99.90
4985;DHT22;2509;49.902;8.600;2023-09-19T06:25:52;17.40;99.90
4985;DHT22;2509;49.902;8.600;2023-09-19T06:28:53;17.50;99.90
4985;DHT22;2509;49.902;8.600;2023-09-19T06:31:56;17.50;99.90
4985;DHT22;2509;49.902;8.600;2023-09-19T06:34:58;17.60;99.90
4985;DHT22;2509;49.902;8.600;2023-09-19T06:38:02;17.60;99.90
4985;DHT22;2509;49.902;8.600;2023-09-19T06:41:04;17.70;99.90
4985;DHT22;2509;49.902;8.600;2023-09-19T06:44:07;17.70;99.90
4985;DHT22;2509;49.902;8.600;2023-09-19T06:47:10;17.80;99.90
4985;DHT22;2509;49.902;8.600;2023-09-19T06:50:12;17.80;99.90
4985;DHT22;2509;49.902;8.600;2023-09-19T06:53:16;17.80;99.90
4985;DHT22;2509;49.902;8.600;2023-09-19T06:56:18;17.90;99.90
4985;DHT22;2509;49.902;8.600;2023-09-19T06:59:20;17.90;99.90
4985;DHT22;2509;49.902;8.600;2023-09-19T07:02:22;17.90;99.90
4985;DHT22;2509;49.902;8.600;2023-09-19T07:05:24;18.00;99.90
4985;DHT22;2509;49.902;8.600;2023-09-19T07:08:27;17.90;99.90
4985;DHT22;2509;49.902;8.600;2023-09-19T07:11:29;18.00;99.90
4985;DHT22;2509;49.902;8.600;2023-09-19T07:14:31;18.00;99.90
4985;DHT22;2509;49.902;8.600;2023-09-19T07:17:33;18.10;99.90
4985;DHT22;2509;49.902;8.600;2023-09-19T07:20:35;18.10;99.90
4985;DHT22;2509;49.902;8.600;2023-09-19T07:23:40;18.20;99.90
4985;DHT22;2509;49.902;8.600;2023-09-19T07:26:41;18.20;99.90
4985;DHT22;2509;49.902;8.600;2023-09-19T07:29:43;18.20;99.90
4985;DHT22;2509;49.902;8.600;2023-09-19T07:32:46;18.20;99.90
4985;DHT22;2509;49.902;8.600;2023-09-19T07:35:48;18.30;99.90
4985;DHT22;2509;49.902;8.600;2023-09-19T07:38:51;18.30;99.90
4985;DHT22;2509;49.902;8.600;2023-09-19T07:41:53;18.40;99.90
4985;DHT22;2509;49.902;8.600;2023-09-19T07:44:55;18.40;99.90
4985;DHT22;2509;49.902;8.600;2023-09-19T07:47:57;18.40;99.90
4985;DHT22;2509;49.902;8.600;2023-09-19T07:51:02;18.50;99.90
4985;DHT22;2509;49.902;8.600;2023-09-19T07:54:06;18.70;99.90
4985;DHT22;2509;49.902;8.600;2023-09-19T07:57:08;18.80;99.90
4985;DHT22;2509;49.902;8.600;2023-09-19T08:00:11;18.90;99.90
4985;DHT22;2509;49.902;8.600;2023-09-19T08:03:13;18.90;99.90
4985;DHT22;2509;49.902;8.600;2023-09-19T08:06:15;18.90;99.90
4985;DHT22;2509;49.902;8.600;2023-09-19T08:09:18;18.90;99.90
4985;DHT22;2509;49.902;8.600;2023-09-19T08:12:21;18.90;99.90
4985;DHT22;2509;49.902;8.600;2023-09-19T08:15:24;18.90;99.90
4985;DHT22;2509;49.902;8.600;2023-09-19T08:18:26;18.90;99.90
4985;DHT22;2509;49.902;8.600;2023-09-19T08:21:30;19.00;99.90
4985;DHT22;2509;49.902;8.600;2023-09-19T08:24:33;19.10;99.90
4985;DHT22;2509;49.902;8.600;2023-09-19T08:27:35;19.20;99.90
4985;DHT22;2509;49.902;8.600;2023-09-19T08:30:37;19.20;99.90
4985;DHT22;2509;49.902;8.600;2023-09-19T08:33:41;19.20;99.90
4985;DHT22;2509;49.902;8.600;2023-09-19T08:36:45;19.20;99.90
4985;DHT22;2509;49.902;8.600;2023-09-19T08:39:49;19.20;99.90
4985;DHT22;2509;49.902;8.600;2023-09-19T08:42:52;19.20;99.90
4985;DHT22;2509;49.902;8.600;2023-09-19T08:46:02;19.30;99.90
4985;DHT22;2509;49.902;8.600;2023-09-19T08:49:11;19.40;99.90
4985;DHT22;2509;49.902;8.600;2023-09-19T08:52:20;19.40;99.90
4985;DHT22;2509;49.902;8.600;2023-09-19T08:55:27;19.50;99.90
4985;DHT22;2509;49.902;8.600;2023-09-19T08:58:33;19.70;99.90
4985;DHT22;2509;49.902;8.600;2023-09-19T09:01:36;19.80;99.90
4985;DHT22;2509;49.902;8.600;2023-09-19T09:04:43;20.00;99.90
4985;DHT22;2509;49.902;8.600;2023-09-19T09:07:45;20.00;99.90
4985;DHT22;2509;49.902;8.600;2023-09-19T09:10:50;20.10;99.90
4985;DHT22;2509;49.902;8.600;2023-09-19T09:13:52;20.20;99.90
4985;DHT22;2509;49.902;8.600;2023-09-19T09:16:55;20.40;99.90
4985;DHT22;2509;49.902;8.600;2023-09-19T09:19:59;20.30;99.90
4985;DHT22;2509;49.902;8.600;2023-09-19T09:23:01;20.50;99.90
4985;DHT22;2509;49.902;8.600;2023-09-19T09:26:05;20.50;99.90
4985;DHT22;2509;49.902;8.600;2023-09-19T09:29:07;20.40;99.90
4985;DHT22;2509;49.902;8.600;2023-09-19T09:32:23;20.50;99.90
4985;DHT22;2509;49.902;8.600;2023-09-19T09:35:25;20.70;99.90
4985;DHT22;2509;49.902;8.600;2023-09-19T09:38:28;20.70;99.90
4985;DHT22;2509;49.902;8.600;2023-09-19T09:41:37;20.80;99.90
4985;DHT22;2509;49.902;8.600;2023-09-19T09:44:40;21.10;99.90
4985;DHT22;2509;49.902;8.600;2023-09-19T09:47:46;21.10;99.90
4985;DHT22;2509;49.902;8.600;2023-09-19T09:50:56;21.20;99.90
4985;DHT22;2509;49.902;8.600;2023-09-19T09:54:11;21.30;99.90
4985;DHT22;2509;49.902;8.600;2023-09-19T09:57:16;21.40;99.90
4985;DHT22;2509;49.902;8.600;2023-09-19T10:00:20;21.50;99.90
4985;DHT22;2509;49.902;8.600;2023-09-19T10:03:30;21.60;99.90
4985;DHT22;2509;49.902;8.600;2023-09-19T10:06:40;21.60;99.90
4985;DHT22;2509;49.902;8.600;2023-09-19T10:09:48;21.30;99.90
4985;DHT22;2509;49.902;8.600;2023-09-19T10:12:52;21.50;99.90
4985;DHT22;2509;49.902;8.600;2023-09-19T10:15:59;21.50;99.90
4985;DHT22;2509;49.902;8.600;2023-09-19T10:19:07;21.70;99.90
4985;DHT22;2509;49.902;8.600;2023-09-19T10:22:11;21.90;99.90
4985;DHT22;2509;49.902;8.600;2023-09-19T10:25:13;21.80;99.90
4985;DHT22;2509;49.902;8.600;2023-09-19T10:28:17;21.80;99.90
4985;DHT22;2509;49.902;8.600;2023-09-19T10:31:22;21.80;99.90
4985;DHT22;2509;49.902;8.600;2023-09-19T10:34:26;21.80;99.90
4985;DHT22;2509;49.902;8.600;2023-09-19T10:37:29;21.80;99.90
4985;DHT22;2509;49.902;8.600;2023-09-19T10:40:34;21.80;99.90
4985;DHT22;2509;49.902;8.600;2023-09-19T10:43:38;21.90;99.90
4985;DHT22;2509;49.902;8.600;2023-09-19T10:46:45;22.20;99.90
4985;DHT22;2509;49.902;8.600;2023-09-19T10:49:48;22.40;99.90
4985;DHT22;2509;49.902;8.600;2023-09-19T10:52:51;22.60;99.90
4985;DHT22;2509;49.902;8.600;2023-09-19T10:55:59;22.80;99.90
4985;DHT22;2509;49.902;8.600;2023-09-19T10:59:13;22.80;99.80
4985;DHT22;2509;49.902;8.600;2023-09-19T11:02:16;22.80;99.30
4985;DHT22;2509;49.902;8.600;2023-09-19T11:05:19;22.80;99.10
4985;DHT22;2509;49.902;8.600;2023-09-19T11:08:21;22.80;98.60
4985;DHT22;2509;49.902;8.600;2023-09-19T11:11:43;22.60;98.30
4985;DHT22;2509;49.902;8.600;2023-09-19T11:14:48;22.60;99.90
4985;DHT22;2509;49.902;8.600;2023-09-19T11:17:49;23.10;99.70
4985;DHT22;2509;49.902;8.600;2023-09-19T11:24:36;23.60;98.60
4985;DHT22;2509;49.902;8.600;2023-09-19T11:28:27;24.20;98.10
4985;DHT22;2509;49.902;8.600;2023-09-19T11:31:52;24.90;93.00
4985;DHT22;2509;49.902;8.600;2023-09-19T11:35:07;24.70;93.00
4985;DHT22;2509;49.902;8.600;2023-09-19T11:38:09;25.30;92.40
4985;DHT22;2509;49.902;8.600;2023-09-19T11:41:40;25.20;91.60
4985;DHT22;2509;49.902;8.600;2023-09-19T11:44:42;25.40;92.40
4985;DHT22;2509;49.902;8.600;2023-09-19T11:47:45;25.90;91.30
4985;DHT22;2509;49.902;8.600;2023-09-19T11:50:48;25.90;90.60
4985;DHT22;2509;49.902;8.600;2023-09-19T11:53:52;25.20;90.40
4985;DHT22;2509;49.902;8.600;2023-09-19T11:56:55;25.40;90.40
4985;DHT22;2509;49.902;8.600;2023-09-19T11:59:58;25.80;90.00
4985;DHT22;2509;49.902;8.600;2023-09-19T12:03:02;25.70;89.50
4985;DHT22;2509;49.902;8.600;2023-09-19T12:06:11;25.70;90.40
4985;DHT22;2509;49.902;8.600;2023-09-19T12:09:15;25.60;90.60
4985;DHT22;2509;49.902;8.600;2023-09-19T12:12:23;25.60;89.80
4985;DHT22;2509;49.902;8.600;2023-09-19T12:15:28;26.40;89.00
4985;DHT22;2509;49.902;8.600;2023-09-19T12:18:34;26.70;89.00
4985;DHT22;2509;49.902;8.600;2023-09-19T12:21:36;27.10;87.00
4985;DHT22;2509;49.902;8.600;2023-09-19T12:24:38;27.10;86.70
4985;DHT22;2509;49.902;8.600;2023-09-19T12:27:44;26.70;87.00
4985;DHT22;2509;49.902;8.600;2023-09-19T12:30:47;26.40;88.00
4985;DHT22;2509;49.902;8.600;2023-09-19T12:33:53;26.70;87.40
4985;DHT22;2509;49.902;8.600;2023-09-19T12:37:05;27.00;86.50
4985;DHT22;2509;49.902;8.600;2023-09-19T12:40:12;27.00;84.10
4985;DHT22;2509;49.902;8.600;2023-09-19T12:43:19;26.70;84.70
4985;DHT22;2509;49.902;8.600;2023-09-19T12:46:22;27.30;83.80
4985;DHT22;2509;49.902;8.600;2023-09-19T12:49:25;27.80;82.50
4985;DHT22;2509;49.902;8.600;2023-09-19T12:52:34;28.10;82.00
4985;DHT22;2509;49.902;8.600;2023-09-19T12:55:36;28.00;82.60
4985;DHT22;2509;49.902;8.600;2023-09-19T12:58:53;27.80;83.00
4985;DHT22;2509;49.902;8.600;2023-09-19T13:02:04;27.80;82.30
4985;DHT22;2509;49.902;8.600;2023-09-19T13:05:07;28.20;82.30
4985;DHT22;2509;49.902;8.600;2023-09-19T13:08:18;28.80;81.30
4985;DHT22;2509;49.902;8.600;2023-09-19T13:11:20;29.20;81.10
4985;DHT22;2509;49.902;8.600;2023-09-19T13:14:24;28.80;80.10
4985;DHT22;2509;49.902;8.600;2023-09-19T13:17:43;28.20;81.70
4985;DHT22;2509;49.902;8.600;2023-09-19T13:21:05;27.40;82.70
4985;DHT22;2509;49.902;8.600;2023-09-19T13:24:20;27.20;83.50
4985;DHT22;2509;49.902;8.600;2023-09-19T13:27:23;26.90;83.70
4985;DHT22;2509;49.902;8.600;2023-09-19T13:30:27;26.70;84.00
4985;DHT22;2509;49.902;8.600;2023-09-19T13:33:30;26.80;84.40
4985;DHT22;2509;49.902;8.600;2023-09-19T13:36:31;26.90;84.60
4985;DHT22;2509;49.902;8.600;2023-09-19T13:39:34;26.80;84.70
4985;DHT22;2509;49.902;8.600;2023-09-19T13:42:36;26.80;84.70
4985;DHT22;2509;49.902;8.600;2023-09-19T13:45:40;26.80;85.10
4985;DHT22;2509;49.902;8.600;2023-09-19T13:48:43;26.60;85.10
4985;DHT22;2509;49.902;8.600;2023-09-19T13:51:44;26.20;86.50
4985;DHT22;2509;49.902;8.600;2023-09-19T13:54:47;26.00;86.40
4985;DHT22;2509;49.902;8.600;2023-09-19T13:57:49;25.70;88.00
4985;DHT22;2509;49.902;8.600;2023-09-19T14:00:56;26.30;87.60
4985;DHT22;2509;49.902;8.600;2023-09-19T14:03:58;26.20;86.90
4985;DHT22;2509;49.902;8.600;2023-09-19T14:07:00;25.90;87.60
4985;DHT22;2509;49.902;8.600;2023-09-19T14:10:02;24.90;89.10
4985;DHT22;2509;49.902;8.600;2023-09-19T14:13:04;24.70;90.50
4985;DHT22;2509;49.902;8.600;2023-09-19T14:16:07;24.40;91.30
4985;DHT22;2509;49.902;8.600;2023-09-19T14:19:10;24.80;91.20
4985;DHT22;2509;49.902;8.600;2023-09-19T14:22:11;25.50;90.60
4985;DHT22;2509;49.902;8.600;2023-09-19T14:25:14;25.60;90.10
4985;DHT22;2509;49.902;8.600;2023-09-19T14:28:16;25.90;90.30
4985;DHT22;2509;49.902;8.600;2023-09-19T14:31:20;25.50;90.00
4985;DHT22;2509;49.902;8.600;2023-09-19T14:34:22;25.00;90.90
4985;DHT22;2509;49.902;8.600;2023-09-19T14:37:23;24.70;91.80
4985;DHT22;2509;49.902;8.600;2023-09-19T14:40:25;24.60;92.70
4985;DHT22;2509;49.902;8.600;2023-09-19T14:43:27;24.50;92.50
4985;DHT22;2509;49.902;8.600;2023-09-19T14:46:31;24.40;93.20
4985;DHT22;2509;49.902;8.600;2023-09-19T14:49:33;24.60;93.30
4985;DHT22;2509;49.902;8.600;2023-09-19T14:52:35;24.90;92.30
4985;DHT22;2509;49.902;8.600;2023-09-19T14:55:37;24.90;92.50
4985;DHT22;2509;49.902;8.600;2023-09-19T14:58:41;25.10;92.30
4985;DHT22;2509;49.902;8.600;2023-09-19T15:01:45;25.30;91.90
4985;DHT22;2509;49.902;8.600;2023-09-19T15:04:46;25.30;92.50
4985;DHT22;2509;49.902;8.600;2023-09-19T15:07:49;25.40;91.60
4985;DHT22;2509;49.902;8.600;2023-09-19T15:10:51;25.40;91.90
4985;DHT22;2509;49.902;8.600;2023-09-19T15:13:53;25.10;91.80
4985;DHT22;2509;49.902;8.600;2023-09-19T15:16:56;25.30;92.10
4985;DHT22;2509;49.902;8.600;2023-09-19T15:19:58;25.50;92.10
4985;DHT22;2509;49.902;8.600;2023-09-19T15:23:00;25.60;91.60
4985;DHT22;2509;49.902;8.600;2023-09-19T15:26:02;25.40;91.80
4985;DHT22;2509;49.902;8.600;2023-09-19T15:29:04;25.20;92.30
4985;DHT22;2509;49.902;8.600;2023-09-19T15:32:07;25.10;92.70
4985;DHT22;2509;49.902;8.600;2023-09-19T15:35:10;25.20;92.80
4985;DHT22;2509;49.902;8.600;2023-09-19T15:38:14;25.10;92.90
4985;DHT22;2509;49.902;8.600;2023-09-19T15:41:16;25.20;93.50
4985;DHT22;2509;49.902;8.600;2023-09-19T15:44:18;25.00;93.50
4985;DHT22;2509;49.902;8.600;2023-09-19T15:47:22;25.10;93.30
4985;DHT22;2509;49.902;8.600;2023-09-19T15:50:23;24.60;94.00
4985;DHT22;2509;49.902;8.600;2023-09-19T15:53:26;24.60;94.10
4985;DHT22;2509;49.902;8.600;2023-09-19T15:56:27;24.40;94.20
4985;DHT22;2509;49.902;8.600;2023-09-19T15:59:29;24.60;94.10
4985;DHT22;2509;49.902;8.600;2023-09-19T16:02:32;24.90;93.50
4985;DHT22;2509;49.902;8.600;2023-09-19T16:05:37;25.00;93.50
4985;DHT22;2509;49.902;8.600;2023-09-19T16:08:40;24.60;94.20
4985;DHT22;2509;49.902;8.600;2023-09-19T16:11:42;24.20;95.70
4985;DHT22;2509;49.902;8.600;2023-09-19T16:14:44;24.10;96.10
4985;DHT22;2509;49.902;8.600;2023-09-19T16:17:47;23.90;96.60
4985;DHT22;2509;49.902;8.600;2023-09-19T16:20:49;23.70;97.90
4985;DHT22;2509;49.902;8.600;2023-09-19T16:23:51;23.50;98.40
4985;DHT22;2509;49.902;8.600;2023-09-19T16:26:54;23.30;99.00
4985;DHT22;2509;49.902;8.600;2023-09-19T16:29:56;23.10;99.90
4985;DHT22;2509;49.902;8.600;2023-09-19T16:32:59;23.10;99.90
4985;DHT22;2509;49.902;8.600;2023-09-19T16:36:01;23.00;99.90
4985;DHT22;2509;49.902;8.600;2023-09-19T16:39:03;23.00;99.90
4985;DHT22;2509;49.902;8.600;2023-09-19T16:42:05;22.90;99.90
4985;DHT22;2509;49.902;8.600;2023-09-19T16:45:08;22.90;99.90
4985;DHT22;2509;49.902;8.600;2023-09-19T16:48:12;22.70;99.90
4985;DHT22;2509;49.902;8.600;2023-09-19T16:51:14;22.60;99.90
4985;DHT22;2509;49.902;8.600;2023-09-19T16:54:16;22.50;99.90
4985;DHT22;2509;49.902;8.600;2023-09-19T16:57:18;22.40;99.90
4985;DHT22;2509;49.902;8.600;2023-09-19T17:00:21;22.30;99.90
4985;DHT22;2509;49.902;8.600;2023-09-19T17:03:27;22.20;99.90
4985;DHT22;2509;49.902;8.600;2023-09-19T17:06:28;22.20;99.90
4985;DHT22;2509;49.902;8.600;2023-09-19T17:09:30;22.10;99.90
4985;DHT22;2509;49.902;8.600;2023-09-19T17:12:32;22.00;99.90
4985;DHT22;2509;49.902;8.600;2023-09-19T17:15:34;22.00;99.90
4985;DHT22;2509;49.902;8.600;2023-09-19T17:18:38;21.90;99.90
4985;DHT22;2509;49.902;8.600;2023-09-19T17:21:41;21.90;99.90
4985;DHT22;2509;49.902;8.600;2023-09-19T17:24:43;21.90;99.90
4985;DHT22;2509;49.902;8.600;2023-09-19T17:27:46;21.70;99.90
4985;DHT22;2509;49.902;8.600;2023-09-19T17:30:48;21.70;99.90
4985;DHT22;2509;49.902;8.600;2023-09-19T17:33:53;21.60;99.90
4985;DHT22;2509;49.902;8.600;2023-09-19T17:36:55;21.60;99.90
4985;DHT22;2509;49.902;8.600;2023-09-19T17:39:58;21.40;99.90
4985;DHT22;2509;49.902;8.600;2023-09-19T17:43:04;21.30;99.90
4985;DHT22;2509;49.902;8.600;2023-09-19T17:46:07;21.30;99.90
4985;DHT22;2509;49.902;8.600;2023-09-19T17:49:11;21.20;99.90
4985;DHT22;2509;49.902;8.600;2023-09-19T17:52:13;21.10;99.90
4985;DHT22;2509;49.902;8.600;2023-09-19T17:55:16;21.00;99.90
4985;DHT22;2509;49.902;8.600;2023-09-19T17:58:18;21.00;99.90
4985;DHT22;2509;49.902;8.600;2023-09-19T18:01:20;21.00;99.90
4985;DHT22;2509;49.902;8.600;2023-09-19T18:04:24;20.90;99.90
4985;DHT22;2509;49.902;8.600;2023-09-19T18:07:26;20.90;99.90
4985;DHT22;2509;49.902;8.600;2023-09-19T18:10:28;20.80;99.90
4985;DHT22;2509;49.902;8.600;2023-09-19T18:13:30;20.80;99.90
4985;DHT22;2509;49.902;8.600;2023-09-19T18:16:32;20.70;99.90
4985;DHT22;2509;49.902;8.600;2023-09-19T18:19:35;20.70;99.90
4985;DHT22;2509;49.902;8.600;2023-09-19T18:22:37;20.70;99.90
4985;DHT22;2509;49.902;8.600;2023-09-19T18:25:38;20.60;99.90
4985;DHT22;2509;49.902;8.600;2023-09-19T18:28:40;20.60;99.90
4985;DHT22;2509;49.902;8.600;2023-09-19T18:31:44;20.50;99.90
4985;DHT22;2509;49.902;8.600;2023-09-19T18:34:47;20.50;99.90
4985;DHT22;2509;49.902;8.600;2023-09-19T18:37:48;20.50;99.90
4985;DHT22;2509;49.902;8.600;2023-09-19T18:40:52;20.50;99.90
4985;DHT22;2509;49.902;8.600;2023-09-19T18:43:53;20.50;99.90
4985;DHT22;2509;49.902;8.600;2023-09-19T18:46:56;20.40;99.90
4985;DHT22;2509;49.902;8.600;2023-09-19T18:49:59;20.40;99.90
4985;DHT22;2509;49.902;8.600;2023-09-19T18:53:01;20.40;99.90
4985;DHT22;2509;49.902;8.600;2023-09-19T18:56:05;20.40;99.90
4985;DHT22;2509;49.902;8.600;2023-09-19T18:59:07;20.30;99.90
4985;DHT22;2509;49.902;8.600;2023-09-19T19:02:09;20.20;99.90
4985;DHT22;2509;49.902;8.600;2023-09-19T19:05:12;20.20;99.90
4985;DHT22;2509;49.902;8.600;2023-09-19T19:08:16;20.20;99.90
4985;DHT22;2509;49.902;8.600;2023-09-19T19:11:19;20.20;99.90
4985;DHT22;2509;49.902;8.600;2023-09-19T19:14:22;20.20;99.90
4985;DHT22;2509;49.902;8.600;2023-09-19T19:17:24;20.20;99.90
4985;DHT22;2509;49.902;8.600;2023-09-19T19:20:27;20.20;99.90
4985;DHT22;2509;49.902;8.600;2023-09-19T19:23:29;20.20;99.90
4985;DHT22;2509;49.902;8.600;2023-09-19T19:26:30;20.10;99.90
4985;DHT22;2509;49.902;8.600;2023-09-19T19:29:32;20.10;99.90
4985;DHT22;2509;49.902;8.600;2023-09-19T19:32:35;20.10;99.90
4985;DHT22;2509;49.902;8.600;2023-09-19T19:35:38;20.10;99.90
4985;DHT22;2509;49.902;8.600;2023-09-19T19:38:45;20.00;99.90
4985;DHT22;2509;49.902;8.600;2023-09-19T19:41:47;20.00;99.90
4985;DHT22;2509;49.902;8.600;2023-09-19T19:44:49;19.90;99.90
4985;DHT22;2509;49.902;8.600;2023-09-19T19:47:54;19.90;99.90
4985;DHT22;2509;49.902;8.600;2023-09-19T19:50:59;19.90;99.90
4985;DHT22;2509;49.902;8.600;2023-09-19T19:54:01;19.80;99.90
4985;DHT22;2509;49.902;8.600;2023-09-19T19:57:04;19.80;99.90
4985;DHT22;2509;49.902;8.600;2023-09-19T20:00:07;19.80;99.90
4985;DHT22;2509;49.902;8.600;2023-09-19T20:03:09;19.70;99.90
4985;DHT22;2509;49.902;8.600;2023-09-19T20:06:13;19.70;99.90
4985;DHT22;2509;49.902;8.600;2023-09-19T20:09:18;19.70;99.90